sensor_id;sensor_type;location;lat;lon;timestamp;P1;durP1;ratioP1;P2;durP2;ratioP2
83717;SDS011;73701;52.234;21.288;2023-12-14T00:01:14;54.60;;;22.15;;
83717;SDS011;73701;52.234;21.288;2023-12-14T00:03:40;51.83;;;21.10;;
83717;SDS011;73701;52.234;21.288;2023-12-14T00:06:07;53.58;;;20.38;;
83717;SDS011;73701;52.234;21.288;2023-12-14T00:08:33;45.22;;;19.90;;
83717;SDS011;73701;52.234;21.288;2023-12-14T00:11:02;57.67;;;22.30;;
83717;SDS011;73701;52.234;21.288;2023-12-14T00:13:29;55.55;;;23.48;;
83717;SDS011;73701;52.234;21.288;2023-12-14T00:15:54;50.20;;;18.83;;
83717;SDS011;73701;52.234;21.288;2023-12-14T00:18:19;53.50;;;19.40;;
83717;SDS011;73701;52.234;21.288;2023-12-14T00:20:45;56.83;;;21.77;;
83717;SDS011;73701;52.234;21.288;2023-12-14T00:23:10;51.83;;;20.83;;
83717;SDS011;73701;52.234;21.288;2023-12-14T00:25:35;54.63;;;22.13;;
83717;SDS011;73701;52.234;21.288;2023-12-14T00:28:01;46.60;;;20.10;;
83717;SDS011;73701;52.234;21.288;2023-12-14T00:30:26;54.27;;;20.30;;
83717;SDS011;73701;52.234;21.288;2023-12-14T00:32:51;51.23;;;19.00;;
83717;SDS011;73701;52.234;21.288;2023-12-14T00:35:16;48.13;;;19.67;;
83717;SDS011;73701;52.234;21.288;2023-12-14T00:37:42;42.43;;;19.10;;
83717;SDS011;73701;52.234;21.288;2023-12-14T00:40:07;51.30;;;21.48;;
83717;SDS011;73701;52.234;21.288;2023-12-14T00:42:33;46.80;;;19.70;;
83717;SDS011;73701;52.234;21.288;2023-12-14T00:44:58;51.67;;;19.60;;
83717;SDS011;73701;52.234;21.288;2023-12-14T00:47:23;50.70;;;20.47;;
83717;SDS011;73701;52.234;21.288;2023-12-14T00:49:49;49.63;;;18.83;;
83717;SDS011;73701;52.234;21.288;2023-12-14T00:52:14;46.37;;;17.73;;
83717;SDS011;73701;52.234;21.288;2023-12-14T00:54:39;51.08;;;19.75;;
83717;SDS011;73701;52.234;21.288;2023-12-14T00:57:05;45.70;;;17.80;;
83717;SDS011;73701;52.234;21.288;2023-12-14T00:59:30;47.53;;;17.67;;
83717;SDS011;73701;52.234;21.288;2023-12-14T01:01:55;46.13;;;17.57;;
83717;SDS011;73701;52.234;21.288;2023-12-14T01:04:21;45.90;;;17.67;;
83717;SDS011;73701;52.234;21.288;2023-12-14T01:06:46;43.15;;;16.45;;
83717;SDS011;73701;52.234;21.288;2023-12-14T01:09:11;43.90;;;16.63;;
83717;SDS011;73701;52.234;21.288;2023-12-14T01:11:37;41.73;;;17.57;;
83717;SDS011;73701;52.234;21.288;2023-12-14T01:14:02;37.80;;;16.97;;
83717;SDS011;73701;52.234;21.288;2023-12-14T01:16:27;44.10;;;17.87;;
83717;SDS011;73701;52.234;21.288;2023-12-14T01:18:52;40.33;;;17.07;;
83717;SDS011;73701;52.234;21.288;2023-12-14T01:21:18;34.67;;;16.07;;
83717;SDS011;73701;52.234;21.288;2023-12-14T01:23:43;33.88;;;15.98;;
83717;SDS011;73701;52.234;21.288;2023-12-14T01:26:09;37.38;;;16.30;;
83717;SDS011;73701;52.234;21.288;2023-12-14T01:28:34;35.23;;;15.80;;
83717;SDS011;73701;52.234;21.288;2023-12-14T01:30:59;35.53;;;15.37;;
83717;SDS011;73701;52.234;21.288;2023-12-14T01:33:25;39.10;;;16.40;;
83717;SDS011;73701;52.234;21.288;2023-12-14T01:35:50;40.17;;;16.88;;
83717;SDS011;73701;52.234;21.288;2023-12-14T01:38:15;32.10;;;14.57;;
83717;SDS011;73701;52.234;21.288;2023-12-14T01:40:40;39.53;;;16.37;;
83717;SDS011;73701;52.234;21.288;2023-12-14T01:43:06;30.87;;;14.60;;
83717;SDS011;73701;52.234;21.288;2023-12-14T01:45:34;35.72;;;16.08;;
83717;SDS011;73701;52.234;21.288;2023-12-14T01:47:59;38.27;;;15.50;;
83717;SDS011;73701;52.234;21.288;2023-12-14T01:50:24;33.90;;;14.57;;
83717;SDS011;73701;52.234;21.288;2023-12-14T01:52:50;42.83;;;16.57;;
83717;SDS011;73701;52.234;21.288;2023-12-14T01:55:15;35.30;;;17.97;;
83717;SDS011;73701;52.234;21.288;2023-12-14T01:57:40;34.57;;;15.00;;
83717;SDS011;73701;52.234;21.288;2023-12-14T02:00:06;36.37;;;14.70;;
83717;SDS011;73701;52.234;21.288;2023-12-14T02:02:31;37.20;;;15.38;;
83717;SDS011;73701;52.234;21.288;2023-12-14T02:04:57;29.30;;;13.60;;
83717;SDS011;73701;52.234;21.288;2023-12-14T02:07:22;39.53;;;16.83;;
83717;SDS011;73701;52.234;21.288;2023-12-14T02:09:48;36.23;;;14.93;;
83717;SDS011;73701;52.234;21.288;2023-12-14T02:12:15;38.45;;;15.60;;
83717;SDS011;73701;52.234;21.288;2023-12-14T02:14:40;37.07;;;15.10;;
83717;SDS011;73701;52.234;21.288;2023-12-14T02:17:06;41.40;;;14.97;;
83717;SDS011;73701;52.234;21.288;2023-12-14T02:19:31;32.17;;;13.37;;
83717;SDS011;73701;52.234;21.288;2023-12-14T02:21:56;39.00;;;14.63;;
83717;SDS011;73701;52.234;21.288;2023-12-14T02:24:22;38.47;;;14.93;;
83717;SDS011;73701;52.234;21.288;2023-12-14T02:26:47;32.83;;;14.20;;
83717;SDS011;73701;52.234;21.288;2023-12-14T02:29:13;34.50;;;14.07;;
83717;SDS011;73701;52.234;21.288;2023-12-14T02:31:38;34.70;;;15.30;;
83717;SDS011;73701;52.234;21.288;2023-12-14T02:34:03;35.63;;;15.10;;
83717;SDS011;73701;52.234;21.288;2023-12-14T02:36:28;43.90;;;16.00;;
83717;SDS011;73701;52.234;21.288;2023-12-14T02:38:54;37.58;;;14.35;;
83717;SDS011;73701;52.234;21.288;2023-12-14T02:41:19;46.50;;;15.27;;
83717;SDS011;73701;52.234;21.288;2023-12-14T02:43:45;29.77;;;14.10;;
83717;SDS011;73701;52.234;21.288;2023-12-14T02:46:10;30.67;;;14.67;;
83717;SDS011;73701;52.234;21.288;2023-12-14T02:48:36;39.10;;;14.73;;
83717;SDS011;73701;52.234;21.288;2023-12-14T02:51:02;30.83;;;13.43;;
83717;SDS011;73701;52.234;21.288;2023-12-14T02:53:28;38.90;;;14.20;;
83717;SDS011;73701;52.234;21.288;2023-12-14T02:55:53;30.07;;;12.83;;
83717;SDS011;73701;52.234;21.288;2023-12-14T02:58:19;30.73;;;14.67;;
83717;SDS011;73701;52.234;21.288;2023-12-14T03:00:44;32.67;;;14.00;;
83717;SDS011;73701;52.234;21.288;2023-12-14T03:03:09;27.48;;;14.75;;
83717;SDS011;73701;52.234;21.288;2023-12-14T03:05:35;28.93;;;11.50;;
83717;SDS011;73701;52.234;21.288;2023-12-14T03:08:01;29.02;;;12.40;;
83717;SDS011;73701;52.234;21.288;2023-12-14T03:10:26;27.47;;;12.67;;
83717;SDS011;73701;52.234;21.288;2023-12-14T03:12:51;30.77;;;12.63;;
83717;SDS011;73701;52.234;21.288;2023-12-14T03:15:18;32.88;;;13.77;;
83717;SDS011;73701;52.234;21.288;2023-12-14T03:17:43;31.02;;;13.75;;
83717;SDS011;73701;52.234;21.288;2023-12-14T03:20:09;28.27;;;14.37;;
83717;SDS011;73701;52.234;21.288;2023-12-14T03:22:34;32.35;;;12.77;;
83717;SDS011;73701;52.234;21.288;2023-12-14T03:25:00;30.37;;;13.00;;
83717;SDS011;73701;52.234;21.288;2023-12-14T03:27:25;36.00;;;12.67;;
83717;SDS011;73701;52.234;21.288;2023-12-14T03:29:50;35.38;;;15.68;;
83717;SDS011;73701;52.234;21.288;2023-12-14T03:32:16;31.33;;;12.23;;
83717;SDS011;73701;52.234;21.288;2023-12-14T03:34:41;37.83;;;14.70;;
83717;SDS011;73701;52.234;21.288;2023-12-14T03:37:06;38.13;;;14.32;;
83717;SDS011;73701;52.234;21.288;2023-12-14T03:39:32;35.47;;;12.98;;
83717;SDS011;73701;52.234;21.288;2023-12-14T03:41:57;40.67;;;14.97;;
83717;SDS011;73701;52.234;21.288;2023-12-14T03:44:23;38.13;;;13.98;;
83717;SDS011;73701;52.234;21.288;2023-12-14T03:46:49;38.97;;;14.65;;
83717;SDS011;73701;52.234;21.288;2023-12-14T03:49:14;45.78;;;15.20;;
83717;SDS011;73701;52.234;21.288;2023-12-14T03:51:39;47.20;;;15.13;;
83717;SDS011;73701;52.234;21.288;2023-12-14T03:54:05;41.30;;;14.60;;
83717;SDS011;73701;52.234;21.288;2023-12-14T03:56:30;45.60;;;17.83;;
83717;SDS011;73701;52.234;21.288;2023-12-14T03:58:55;38.70;;;14.77;;
83717;SDS011;73701;52.234;21.288;2023-12-14T04:01:22;39.00;;;15.75;;
83717;SDS011;73701;52.234;21.288;2023-12-14T04:03:47;46.35;;;15.38;;
83717;SDS011;73701;52.234;21.288;2023-12-14T04:06:13;32.42;;;14.25;;
83717;SDS011;73701;52.234;21.288;2023-12-14T04:08:39;38.47;;;13.73;;
83717;SDS011;73701;52.234;21.288;2023-12-14T04:11:05;40.50;;;13.88;;
83717;SDS011;73701;52.234;21.288;2023-12-14T04:13:31;35.95;;;14.27;;
83717;SDS011;73701;52.234;21.288;2023-12-14T04:15:56;36.03;;;15.10;;
83717;SDS011;73701;52.234;21.288;2023-12-14T04:18:22;35.75;;;14.55;;
83717;SDS011;73701;52.234;21.288;2023-12-14T04:20:48;38.58;;;15.40;;
83717;SDS011;73701;52.234;21.288;2023-12-14T04:23:13;34.63;;;13.47;;
83717;SDS011;73701;52.234;21.288;2023-12-14T04:25:38;35.33;;;14.60;;
83717;SDS011;73701;52.234;21.288;2023-12-14T04:28:04;36.83;;;13.80;;
83717;SDS011;73701;52.234;21.288;2023-12-14T04:30:29;33.45;;;13.63;;
83717;SDS011;73701;52.234;21.288;2023-12-14T04:32:55;36.55;;;14.48;;
83717;SDS011;73701;52.234;21.288;2023-12-14T04:35:20;42.30;;;13.97;;
83717;SDS011;73701;52.234;21.288;2023-12-14T04:37:47;38.33;;;16.00;;
83717;SDS011;73701;52.234;21.288;2023-12-14T04:40:12;41.50;;;13.20;;
83717;SDS011;73701;52.234;21.288;2023-12-14T04:42:38;35.83;;;14.20;;
83717;SDS011;73701;52.234;21.288;2023-12-14T04:45:03;35.60;;;14.10;;
83717;SDS011;73701;52.234;21.288;2023-12-14T04:47:29;35.88;;;13.65;;
83717;SDS011;73701;52.234;21.288;2023-12-14T04:49:54;34.53;;;12.47;;
83717;SDS011;73701;52.234;21.288;2023-12-14T04:52:19;31.47;;;13.00;;
83717;SDS011;73701;52.234;21.288;2023-12-14T04:54:45;35.17;;;12.97;;
83717;SDS011;73701;52.234;21.288;2023-12-14T04:57:10;36.57;;;14.23;;
83717;SDS011;73701;52.234;21.288;2023-12-14T04:59:35;38.47;;;13.90;;
83717;SDS011;73701;52.234;21.288;2023-12-14T05:02:00;38.57;;;15.07;;
83717;SDS011;73701;52.234;21.288;2023-12-14T05:04:26;35.15;;;13.10;;
83717;SDS011;73701;52.234;21.288;2023-12-14T05:06:51;39.90;;;13.87;;
83717;SDS011;73701;52.234;21.288;2023-12-14T05:09:17;35.97;;;13.77;;
83717;SDS011;73701;52.234;21.288;2023-12-14T05:11:42;33.23;;;12.60;;
83717;SDS011;73701;52.234;21.288;2023-12-14T05:14:08;35.15;;;13.50;;
83717;SDS011;73701;52.234;21.288;2023-12-14T05:16:33;39.05;;;14.02;;
83717;SDS011;73701;52.234;21.288;2023-12-14T05:18:59;39.67;;;13.83;;
83717;SDS011;73701;52.234;21.288;2023-12-14T05:21:24;38.22;;;14.75;;
83717;SDS011;73701;52.234;21.288;2023-12-14T05:23:50;41.63;;;15.05;;
83717;SDS011;73701;52.234;21.288;2023-12-14T05:26:15;33.80;;;13.20;;
83717;SDS011;73701;52.234;21.288;2023-12-14T05:28:41;30.25;;;12.60;;
83717;SDS011;73701;52.234;21.288;2023-12-14T05:31:06;31.27;;;12.63;;
83717;SDS011;73701;52.234;21.288;2023-12-14T05:33:31;31.83;;;12.93;;
83717;SDS011;73701;52.234;21.288;2023-12-14T05:35:58;27.80;;;12.60;;
83717;SDS011;73701;52.234;21.288;2023-12-14T05:38:24;33.47;;;13.35;;
83717;SDS011;73701;52.234;21.288;2023-12-14T05:40:49;33.00;;;13.18;;
83717;SDS011;73701;52.234;21.288;2023-12-14T05:43:15;37.70;;;12.30;;
83717;SDS011;73701;52.234;21.288;2023-12-14T05:45:40;33.55;;;11.70;;
83717;SDS011;73701;52.234;21.288;2023-12-14T05:48:06;29.15;;;12.82;;
83717;SDS011;73701;52.234;21.288;2023-12-14T05:50:31;37.73;;;14.43;;
83717;SDS011;73701;52.234;21.288;2023-12-14T05:52:56;35.43;;;12.80;;
83717;SDS011;73701;52.234;21.288;2023-12-14T05:55:22;39.42;;;14.18;;
83717;SDS011;73701;52.234;21.288;2023-12-14T05:57:48;32.72;;;13.73;;
83717;SDS011;73701;52.234;21.288;2023-12-14T06:00:13;37.65;;;13.52;;
83717;SDS011;73701;52.234;21.288;2023-12-14T06:02:39;34.28;;;13.75;;
83717;SDS011;73701;52.234;21.288;2023-12-14T06:05:05;38.30;;;14.70;;
83717;SDS011;73701;52.234;21.288;2023-12-14T06:07:32;41.67;;;14.63;;
83717;SDS011;73701;52.234;21.288;2023-12-14T06:09:57;35.40;;;13.38;;
83717;SDS011;73701;52.234;21.288;2023-12-14T06:12:23;32.95;;;13.25;;
83717;SDS011;73701;52.234;21.288;2023-12-14T06:14:48;38.58;;;13.68;;
83717;SDS011;73701;52.234;21.288;2023-12-14T06:17:15;34.92;;;14.25;;
83717;SDS011;73701;52.234;21.288;2023-12-14T06:19:40;36.00;;;14.07;;
83717;SDS011;73701;52.234;21.288;2023-12-14T06:22:06;34.90;;;13.90;;
83717;SDS011;73701;52.234;21.288;2023-12-14T06:24:31;35.33;;;13.80;;
83717;SDS011;73701;52.234;21.288;2023-12-14T06:26:56;35.00;;;13.23;;
83717;SDS011;73701;52.234;21.288;2023-12-14T06:29:22;38.37;;;13.50;;
83717;SDS011;73701;52.234;21.288;2023-12-14T06:31:47;31.70;;;13.67;;
83717;SDS011;73701;52.234;21.288;2023-12-14T06:34:12;30.83;;;13.30;;
83717;SDS011;73701;52.234;21.288;2023-12-14T06:36:41;29.03;;;13.17;;
83717;SDS011;73701;52.234;21.288;2023-12-14T06:39:07;35.60;;;12.50;;
83717;SDS011;73701;52.234;21.288;2023-12-14T06:41:33;37.00;;;11.98;;
83717;SDS011;73701;52.234;21.288;2023-12-14T06:43:58;38.07;;;12.73;;
83717;SDS011;73701;52.234;21.288;2023-12-14T06:46:23;33.73;;;13.13;;
83717;SDS011;73701;52.234;21.288;2023-12-14T06:48:49;31.65;;;12.45;;
83717;SDS011;73701;52.234;21.288;2023-12-14T06:51:14;36.60;;;12.38;;
83717;SDS011;73701;52.234;21.288;2023-12-14T06:53:40;36.75;;;13.20;;
83717;SDS011;73701;52.234;21.288;2023-12-14T06:56:08;34.00;;;14.10;;
83717;SDS011;73701;52.234;21.288;2023-12-14T06:58:35;34.67;;;14.30;;
83717;SDS011;73701;52.234;21.288;2023-12-14T07:01:05;38.38;;;12.23;;
83717;SDS011;73701;52.234;21.288;2023-12-14T07:03:30;31.70;;;13.13;;
83717;SDS011;73701;52.234;21.288;2023-12-14T07:05:56;33.13;;;13.77;;
83717;SDS011;73701;52.234;21.288;2023-12-14T07:08:22;34.10;;;12.60;;
83717;SDS011;73701;52.234;21.288;2023-12-14T07:10:48;34.47;;;12.95;;
83717;SDS011;73701;52.234;21.288;2023-12-14T07:13:13;33.78;;;13.02;;
83717;SDS011;73701;52.234;21.288;2023-12-14T07:15:39;34.72;;;13.13;;
83717;SDS011;73701;52.234;21.288;2023-12-14T07:18:04;32.28;;;10.75;;
83717;SDS011;73701;52.234;21.288;2023-12-14T07:20:29;26.40;;;11.65;;
83717;SDS011;73701;52.234;21.288;2023-12-14T07:22:55;32.42;;;12.80;;
83717;SDS011;73701;52.234;21.288;2023-12-14T07:25:20;27.77;;;11.50;;
83717;SDS011;73701;52.234;21.288;2023-12-14T07:27:46;26.67;;;11.53;;
83717;SDS011;73701;52.234;21.288;2023-12-14T07:30:14;28.80;;;10.85;;
83717;SDS011;73701;52.234;21.288;2023-12-14T07:32:39;31.10;;;11.45;;
83717;SDS011;73701;52.234;21.288;2023-12-14T07:35:05;31.63;;;11.70;;
83717;SDS011;73701;52.234;21.288;2023-12-14T07:37:30;31.20;;;13.93;;
83717;SDS011;73701;52.234;21.288;2023-12-14T07:39:56;33.42;;;13.38;;
83717;SDS011;73701;52.234;21.288;2023-12-14T07:42:22;30.70;;;13.02;;
83717;SDS011;73701;52.234;21.288;2023-12-14T07:44:48;32.00;;;11.47;;
83717;SDS011;73701;52.234;21.288;2023-12-14T07:47:13;36.97;;;13.37;;
83717;SDS011;73701;52.234;21.288;2023-12-14T07:49:38;31.30;;;12.90;;
83717;SDS011;73701;52.234;21.288;2023-12-14T07:52:04;29.23;;;12.20;;
83717;SDS011;73701;52.234;21.288;2023-12-14T07:54:29;32.20;;;12.00;;
83717;SDS011;73701;52.234;21.288;2023-12-14T07:56:55;34.20;;;14.03;;
83717;SDS011;73701;52.234;21.288;2023-12-14T07:59:20;33.20;;;13.10;;
83717;SDS011;73701;52.234;21.288;2023-12-14T08:01:46;31.60;;;11.68;;
83717;SDS011;73701;52.234;21.288;2023-12-14T08:04:11;35.33;;;12.90;;
83717;SDS011;73701;52.234;21.288;2023-12-14T08:06:37;30.20;;;11.23;;
83717;SDS011;73701;52.234;21.288;2023-12-14T08:09:04;30.38;;;13.25;;
83717;SDS011;73701;52.234;21.288;2023-12-14T08:11:30;28.90;;;11.68;;
83717;SDS011;73701;52.234;21.288;2023-12-14T08:13:56;27.50;;;12.07;;
83717;SDS011;73701;52.234;21.288;2023-12-14T08:16:22;28.00;;;11.23;;
83717;SDS011;73701;52.234;21.288;2023-12-14T08:18:47;26.40;;;11.27;;
83717;SDS011;73701;52.234;21.288;2023-12-14T08:21:13;27.13;;;12.10;;
83717;SDS011;73701;52.234;21.288;2023-12-14T08:23:39;31.70;;;13.55;;
83717;SDS011;73701;52.234;21.288;2023-12-14T08:26:04;29.25;;;13.25;;
83717;SDS011;73701;52.234;21.288;2023-12-14T08:28:30;25.10;;;12.45;;
83717;SDS011;73701;52.234;21.288;2023-12-14T08:30:55;26.90;;;13.17;;
83717;SDS011;73701;52.234;21.288;2023-12-14T08:33:23;25.13;;;11.48;;
83717;SDS011;73701;52.234;21.288;2023-12-14T08:35:49;27.63;;;10.73;;
83717;SDS011;73701;52.234;21.288;2023-12-14T08:38:15;24.25;;;10.77;;
83717;SDS011;73701;52.234;21.288;2023-12-14T08:40:41;22.92;;;12.27;;
83717;SDS011;73701;52.234;21.288;2023-12-14T08:43:07;26.58;;;10.02;;
83717;SDS011;73701;52.234;21.288;2023-12-14T08:45:32;25.63;;;11.50;;
83717;SDS011;73701;52.234;21.288;2023-12-14T08:47:57;27.03;;;10.80;;
83717;SDS011;73701;52.234;21.288;2023-12-14T08:50:23;22.52;;;10.80;;
83717;SDS011;73701;52.234;21.288;2023-12-14T08:52:51;25.35;;;11.00;;
83717;SDS011;73701;52.234;21.288;2023-12-14T08:55:16;21.45;;;9.38;;
83717;SDS011;73701;52.234;21.288;2023-12-14T08:57:42;25.00;;;10.68;;
83717;SDS011;73701;52.234;21.288;2023-12-14T09:00:07;22.55;;;11.27;;
83717;SDS011;73701;52.234;21.288;2023-12-14T09:02:33;27.23;;;10.73;;
83717;SDS011;73701;52.234;21.288;2023-12-14T09:04:58;20.42;;;9.18;;
83717;SDS011;73701;52.234;21.288;2023-12-14T09:07:24;23.45;;;9.25;;
83717;SDS011;73701;52.234;21.288;2023-12-14T09:09:49;22.70;;;10.32;;
83717;SDS011;73701;52.234;21.288;2023-12-14T09:12:15;24.98;;;10.15;;
83717;SDS011;73701;52.234;21.288;2023-12-14T09:14:40;22.75;;;10.77;;
83717;SDS011;73701;52.234;21.288;2023-12-14T09:17:06;23.40;;;9.60;;
83717;SDS011;73701;52.234;21.288;2023-12-14T09:19:31;25.42;;;10.52;;
83717;SDS011;73701;52.234;21.288;2023-12-14T09:21:57;30.85;;;11.32;;
83717;SDS011;73701;52.234;21.288;2023-12-14T09:24:22;25.38;;;11.75;;
83717;SDS011;73701;52.234;21.288;2023-12-14T09:26:48;23.85;;;11.27;;
83717;SDS011;73701;52.234;21.288;2023-12-14T09:29:13;29.58;;;11.38;;
83717;SDS011;73701;52.234;21.288;2023-12-14T09:31:43;29.30;;;11.35;;
83717;SDS011;73701;52.234;21.288;2023-12-14T09:34:12;25.45;;;10.82;;
83717;SDS011;73701;52.234;21.288;2023-12-14T09:36:38;25.58;;;10.45;;
83717;SDS011;73701;52.234;21.288;2023-12-14T09:39:04;25.92;;;11.65;;
83717;SDS011;73701;52.234;21.288;2023-12-14T09:41:30;26.10;;;10.70;;
83717;SDS011;73701;52.234;21.288;2023-12-14T09:43:56;25.20;;;11.55;;
83717;SDS011;73701;52.234;21.288;2023-12-14T09:46:21;28.60;;;11.52;;
83717;SDS011;73701;52.234;21.288;2023-12-14T09:48:49;25.75;;;11.48;;
83717;SDS011;73701;52.234;21.288;2023-12-14T09:51:16;26.00;;;12.02;;
83717;SDS011;73701;52.234;21.288;2023-12-14T09:53:41;29.02;;;11.68;;
83717;SDS011;73701;52.234;21.288;2023-12-14T09:56:07;21.00;;;10.18;;
83717;SDS011;73701;52.234;21.288;2023-12-14T09:58:33;23.17;;;11.00;;
83717;SDS011;73701;52.234;21.288;2023-12-14T10:00:58;23.02;;;10.18;;
83717;SDS011;73701;52.234;21.288;2023-12-14T10:03:26;23.25;;;10.18;;
83717;SDS011;73701;52.234;21.288;2023-12-14T10:05:56;22.13;;;10.60;;
83717;SDS011;73701;52.234;21.288;2023-12-14T10:08:22;21.35;;;11.20;;
83717;SDS011;73701;52.234;21.288;2023-12-14T10:10:50;21.05;;;9.95;;
83717;SDS011;73701;52.234;21.288;2023-12-14T10:13:22;24.02;;;11.18;;
83717;SDS011;73701;52.234;21.288;2023-12-14T10:16:01;20.33;;;9.68;;
83717;SDS011;73701;52.234;21.288;2023-12-14T10:18:26;22.57;;;10.23;;
83717;SDS011;73701;52.234;21.288;2023-12-14T10:20:53;19.20;;;9.68;;
83717;SDS011;73701;52.234;21.288;2023-12-14T10:23:18;23.10;;;10.93;;
83717;SDS011;73701;52.234;21.288;2023-12-14T10:25:45;21.38;;;9.48;;
83717;SDS011;73701;52.234;21.288;2023-12-14T10:28:11;24.70;;;8.95;;
83717;SDS011;73701;52.234;21.288;2023-12-14T10:30:38;19.83;;;8.18;;
83717;SDS011;73701;52.234;21.288;2023-12-14T10:33:04;19.73;;;9.38;;
83717;SDS011;73701;52.234;21.288;2023-12-14T10:35:29;21.50;;;10.00;;
83717;SDS011;73701;52.234;21.288;2023-12-14T10:37:55;15.93;;;8.63;;
83717;SDS011;73701;52.234;21.288;2023-12-14T10:40:23;18.90;;;8.93;;
83717;SDS011;73701;52.234;21.288;2023-12-14T10:42:51;20.48;;;8.55;;
83717;SDS011;73701;52.234;21.288;2023-12-14T10:45:18;16.58;;;8.20;;
83717;SDS011;73701;52.234;21.288;2023-12-14T10:47:46;18.23;;;8.70;;
83717;SDS011;73701;52.234;21.288;2023-12-14T10:50:13;18.80;;;8.65;;
83717;SDS011;73701;52.234;21.288;2023-12-14T10:52:38;18.73;;;8.95;;
83717;SDS011;73701;52.234;21.288;2023-12-14T10:55:06;17.15;;;8.23;;
83717;SDS011;73701;52.234;21.288;2023-12-14T10:57:35;17.13;;;9.43;;
83717;SDS011;73701;52.234;21.288;2023-12-14T11:00:04;15.63;;;8.93;;
83717;SDS011;73701;52.234;21.288;2023-12-14T11:02:38;17.58;;;8.65;;
83717;SDS011;73701;52.234;21.288;2023-12-14T11:05:05;17.25;;;8.57;;
83717;SDS011;73701;52.234;21.288;2023-12-14T11:07:43;19.83;;;9.20;;
83717;SDS011;73701;52.234;21.288;2023-12-14T11:10:13;16.00;;;8.50;;
83717;SDS011;73701;52.234;21.288;2023-12-14T11:15:46;15.30;;;7.55;;
83717;SDS011;73701;52.234;21.288;2023-12-14T11:18:19;15.77;;;7.47;;
83717;SDS011;73701;52.234;21.288;2023-12-14T11:25:54;17.60;;;9.63;;
83717;SDS011;73701;52.234;21.288;2023-12-14T11:28:21;17.23;;;9.52;;
83717;SDS011;73701;52.234;21.288;2023-12-14T11:30:47;20.80;;;9.57;;
83717;SDS011;73701;52.234;21.288;2023-12-14T11:33:13;15.30;;;8.35;;
83717;SDS011;73701;52.234;21.288;2023-12-14T11:35:40;15.00;;;8.38;;
83717;SDS011;73701;52.234;21.288;2023-12-14T11:38:06;19.45;;;8.02;;
83717;SDS011;73701;52.234;21.288;2023-12-14T11:40:44;14.02;;;7.22;;
83717;SDS011;73701;52.234;21.288;2023-12-14T11:43:09;14.35;;;7.57;;
83717;SDS011;73701;52.234;21.288;2023-12-14T11:45:35;15.13;;;7.40;;
83717;SDS011;73701;52.234;21.288;2023-12-14T11:48:02;16.42;;;7.97;;
83717;SDS011;73701;52.234;21.288;2023-12-14T11:50:35;15.38;;;7.57;;
83717;SDS011;73701;52.234;21.288;2023-12-14T11:53:06;14.98;;;8.40;;
83717;SDS011;73701;52.234;21.288;2023-12-14T11:55:33;15.52;;;9.00;;
83717;SDS011;73701;52.234;21.288;2023-12-14T11:57:59;19.00;;;10.05;;
83717;SDS011;73701;52.234;21.288;2023-12-14T12:00:25;14.95;;;8.80;;
83717;SDS011;73701;52.234;21.288;2023-12-14T12:02:52;15.95;;;8.00;;
83717;SDS011;73701;52.234;21.288;2023-12-14T12:05:17;17.38;;;7.60;;
83717;SDS011;73701;52.234;21.288;2023-12-14T12:07:47;17.05;;;8.40;;
83717;SDS011;73701;52.234;21.288;2023-12-14T12:10:12;13.20;;;7.53;;
83717;SDS011;73701;52.234;21.288;2023-12-14T12:12:38;18.73;;;8.50;;
83717;SDS011;73701;52.234;21.288;2023-12-14T12:15:03;19.85;;;8.85;;
83717;SDS011;73701;52.234;21.288;2023-12-14T12:17:29;15.90;;;8.55;;
83717;SDS011;73701;52.234;21.288;2023-12-14T12:19:58;15.05;;;7.75;;
83717;SDS011;73701;52.234;21.288;2023-12-14T12:22:24;18.43;;;8.43;;
83717;SDS011;73701;52.234;21.288;2023-12-14T12:24:49;20.07;;;8.93;;
83717;SDS011;73701;52.234;21.288;2023-12-14T12:27:14;14.63;;;7.83;;
83717;SDS011;73701;52.234;21.288;2023-12-14T12:29:40;16.87;;;8.23;;
83717;SDS011;73701;52.234;21.288;2023-12-14T12:32:05;16.27;;;7.50;;
83717;SDS011;73701;52.234;21.288;2023-12-14T12:34:30;20.13;;;8.80;;
83717;SDS011;73701;52.234;21.288;2023-12-14T12:36:56;18.87;;;9.17;;
83717;SDS011;73701;52.234;21.288;2023-12-14T12:39:22;17.63;;;8.88;;
83717;SDS011;73701;52.234;21.288;2023-12-14T12:41:48;20.40;;;9.70;;
83717;SDS011;73701;52.234;21.288;2023-12-14T12:44:13;24.83;;;10.77;;
83717;SDS011;73701;52.234;21.288;2023-12-14T12:46:38;21.40;;;10.13;;
83717;SDS011;73701;52.234;21.288;2023-12-14T12:49:05;19.50;;;9.50;;
83717;SDS011;73701;52.234;21.288;2023-12-14T12:51:30;18.55;;;9.80;;
83717;SDS011;73701;52.234;21.288;2023-12-14T12:53:57;26.23;;;11.18;;
83717;SDS011;73701;52.234;21.288;2023-12-14T12:56:23;27.52;;;11.88;;
83717;SDS011;73701;52.234;21.288;2023-12-14T12:58:50;28.10;;;12.77;;
83717;SDS011;73701;52.234;21.288;2023-12-14T13:01:17;30.27;;;12.57;;
83717;SDS011;73701;52.234;21.288;2023-12-14T13:03:42;27.50;;;11.63;;
83717;SDS011;73701;52.234;21.288;2023-12-14T13:06:07;24.27;;;10.13;;
83717;SDS011;73701;52.234;21.288;2023-12-14T13:08:33;26.38;;;11.02;;
83717;SDS011;73701;52.234;21.288;2023-12-14T13:10:58;18.15;;;8.77;;
83717;SDS011;73701;52.234;21.288;2023-12-14T13:13:24;22.77;;;8.88;;
83717;SDS011;73701;52.234;21.288;2023-12-14T13:15:50;18.75;;;8.50;;
83717;SDS011;73701;52.234;21.288;2023-12-14T13:18:15;17.85;;;8.60;;
83717;SDS011;73701;52.234;21.288;2023-12-14T13:20:41;15.93;;;8.18;;
83717;SDS011;73701;52.234;21.288;2023-12-14T13:23:07;15.95;;;8.32;;
83717;SDS011;73701;52.234;21.288;2023-12-14T13:25:33;21.58;;;10.75;;
83717;SDS011;73701;52.234;21.288;2023-12-14T13:27:58;19.48;;;8.60;;
83717;SDS011;73701;52.234;21.288;2023-12-14T13:30:24;20.60;;;9.07;;
83717;SDS011;73701;52.234;21.288;2023-12-14T13:32:50;29.58;;;16.20;;
83717;SDS011;73701;52.234;21.288;2023-12-14T13:35:15;22.00;;;11.48;;
83717;SDS011;73701;52.234;21.288;2023-12-14T13:37:41;27.85;;;11.18;;
83717;SDS011;73701;52.234;21.288;2023-12-14T13:40:06;20.65;;;9.85;;
83717;SDS011;73701;52.234;21.288;2023-12-14T13:42:32;21.05;;;8.52;;
83717;SDS011;73701;52.234;21.288;2023-12-14T13:44:57;18.88;;;9.70;;
83717;SDS011;73701;52.234;21.288;2023-12-14T13:47:23;21.87;;;10.30;;
83717;SDS011;73701;52.234;21.288;2023-12-14T13:49:48;17.87;;;9.07;;
83717;SDS011;73701;52.234;21.288;2023-12-14T13:52:13;21.75;;;10.55;;
83717;SDS011;73701;52.234;21.288;2023-12-14T13:54:39;18.73;;;9.57;;
83717;SDS011;73701;52.234;21.288;2023-12-14T13:57:04;21.65;;;10.50;;
83717;SDS011;73701;52.234;21.288;2023-12-14T13:59:30;24.10;;;10.43;;
83717;SDS011;73701;52.234;21.288;2023-12-14T14:01:55;19.67;;;10.00;;
83717;SDS011;73701;52.234;21.288;2023-12-14T14:04:20;23.67;;;10.23;;
83717;SDS011;73701;52.234;21.288;2023-12-14T14:06:46;19.87;;;9.07;;
83717;SDS011;73701;52.234;21.288;2023-12-14T14:09:11;20.30;;;9.13;;
83717;SDS011;73701;52.234;21.288;2023-12-14T14:11:37;23.88;;;9.77;;